KINT/INT METAR and TAF weather

Enter ICAO airport designator
Station Type Date Time Source
KINT METAR 2021/07/27 21:54 UTC NOAA

KINT 272154Z 10003KT 10SM CLR 31/22 A2999 RMK AO2 SLP143 T03110222


Station Type Date Time Source
KINT Decoded METAR 2021/07/27 21:54 UTC NOAA

WINSTON SALEM SMITH REYNOLDS, NC, United States (KINT) 36-08N 80-14W 291M
Jul 27, 2021 - 05:54 PM EDT / 2021.07.27 2154 UTC
Wind: from the E (100 degrees) at 3 MPH (3 KT):0
Visibility: 10 mile(s):0
Sky conditions: clear
Temperature: 88.0 F (31.1 C)
Heat index: 94.6 F (34.8 C):1
Dew Point: 72.0 F (22.2 C)
Relative Humidity: 59%
Pressure (altimeter): 29.99 in. Hg (1015 hPa)
ob: KINT 272154Z 10003KT 10SM CLR 31/22 A2999 RMK AO2 SLP143 T03110222
cycle: 22

Station Type Date Time Source
KINT TAF 2021/07/27 18:39 UTC NOAA

TAF KINT 271737Z 2718/2818 VRB03KT P6SM SCT025 SCT250
FM272200 12004KT P6SM SCT250
FM280900 20003KT 2SM BR BKN003
FM281300 32003KT P6SM FEW250

Example: see airport list